createdAt,value
2023-10-26T00:00:46.910Z,13.13
2023-10-26T00:03:14.786Z,13.16
2023-10-26T00:05:42.509Z,13.18
2023-10-26T00:08:09.907Z,13.19
2023-10-26T00:10:41.019Z,13.15
2023-10-26T00:13:09.167Z,13.11
2023-10-26T00:15:38.145Z,13.12
2023-10-26T00:18:05.649Z,13.05
2023-10-26T00:20:33.119Z,12.93
2023-10-26T00:23:00.486Z,12.88
2023-10-26T00:25:27.656Z,12.83
2023-10-26T00:27:55.239Z,12.84
2023-10-26T00:30:22.655Z,12.84
2023-10-26T00:32:50.124Z,12.84
2023-10-26T00:35:17.711Z,12.80
2023-10-26T00:37:46.239Z,12.77
2023-10-26T00:40:14.046Z,12.70
2023-10-26T00:42:41.572Z,12.64
2023-10-26T00:45:09.759Z,12.59
2023-10-26T00:47:37.616Z,12.58
2023-10-26T00:50:07.225Z,12.56
2023-10-26T00:52:36.399Z,12.59
2023-10-26T00:55:07.875Z,12.60
2023-10-26T00:57:36.521Z,12.64
2023-10-26T01:00:06.323Z,12.70
2023-10-26T01:02:33.951Z,12.78
2023-10-26T01:05:01.434Z,12.82
2023-10-26T01:07:28.666Z,12.83
2023-10-26T01:09:57.239Z,12.85
2023-10-26T01:12:26.482Z,12.82
2023-10-26T01:14:54.276Z,12.77
2023-10-26T01:17:21.690Z,12.77
2023-10-26T01:19:49.274Z,12.80
2023-10-26T01:22:16.484Z,12.78
2023-10-26T01:24:43.975Z,12.75
2023-10-26T01:27:11.519Z,12.67
2023-10-26T01:29:38.777Z,12.69
2023-10-26T01:32:06.394Z,12.72
2023-10-26T01:34:33.682Z,12.74
2023-10-26T01:37:04.281Z,12.85
2023-10-26T01:39:31.501Z,12.82
2023-10-26T01:41:58.741Z,12.83
2023-10-26T01:44:26.238Z,12.89
2023-10-26T01:46:53.506Z,12.90
2023-10-26T01:49:20.920Z,12.94
2023-10-26T01:51:48.160Z,12.92
2023-10-26T01:54:15.380Z,12.89
2023-10-26T01:56:42.583Z,12.88
2023-10-26T01:59:10.072Z,12.85
2023-10-26T02:01:37.471Z,12.87
2023-10-26T02:04:07.719Z,12.89
2023-10-26T02:06:35.146Z,12.90
2023-10-26T02:09:02.487Z,12.93
2023-10-26T02:11:29.953Z,12.87
2023-10-26T02:13:57.161Z,12.85
2023-10-26T02:16:24.410Z,12.85
2023-10-26T02:18:51.700Z,12.85
2023-10-26T02:21:18.969Z,12.83
2023-10-26T02:23:46.468Z,12.82
2023-10-26T02:26:13.726Z,12.80
2023-10-26T02:28:41.033Z,12.73
2023-10-26T02:31:08.312Z,12.71
2023-10-26T02:33:35.571Z,12.70
2023-10-26T02:36:05.725Z,12.70
2023-10-26T02:38:33.748Z,12.71
2023-10-26T02:41:06.204Z,12.70
2023-10-26T02:43:33.570Z,12.69
2023-10-26T02:46:09.725Z,12.69
2023-10-26T02:48:38.664Z,12.73
2023-10-26T02:51:07.107Z,12.68
2023-10-26T02:53:34.823Z,12.69
2023-10-26T02:56:02.111Z,12.72
2023-10-26T02:58:29.396Z,12.70
2023-10-26T03:00:56.855Z,12.54
2023-10-26T03:03:26.754Z,12.44
2023-10-26T03:05:54.177Z,12.43
2023-10-26T03:08:21.731Z,12.43
2023-10-26T03:10:48.973Z,12.40
2023-10-26T03:13:16.369Z,12.30
2023-10-26T03:15:43.822Z,12.24
2023-10-26T03:18:11.569Z,12.19
2023-10-26T03:20:38.921Z,12.17
2023-10-26T03:23:06.352Z,12.11
2023-10-26T03:25:33.592Z,12.10
2023-10-26T03:28:01.137Z,12.07
2023-10-26T03:30:29.203Z,12.08
2023-10-26T03:32:56.719Z,12.04
2023-10-26T03:35:24.628Z,12.03
2023-10-26T03:37:52.080Z,11.99
2023-10-26T03:40:19.333Z,12.03
2023-10-26T03:42:46.578Z,12.08
2023-10-26T03:45:14.197Z,12.11
2023-10-26T03:47:42.259Z,12.14
2023-10-26T03:50:10.116Z,12.16
2023-10-26T03:52:37.929Z,12.18
2023-10-26T03:55:06.026Z,12.19
2023-10-26T03:57:34.906Z,12.22
2023-10-26T04:00:04.170Z,12.22
2023-10-26T04:02:39.232Z,12.16
2023-10-26T04:05:07.455Z,12.19
2023-10-26T04:07:35.334Z,12.10
2023-10-26T04:10:06.684Z,12.17
2023-10-26T04:12:34.491Z,12.18
2023-10-26T04:15:02.903Z,12.07
2023-10-26T04:17:30.437Z,11.99
2023-10-26T04:19:58.736Z,12.08
2023-10-26T04:22:28.209Z,12.06
2023-10-26T04:24:55.425Z,11.94
2023-10-26T04:27:22.854Z,11.91
2023-10-26T04:29:50.730Z,11.88
2023-10-26T04:32:18.098Z,11.85
2023-10-26T04:34:45.880Z,11.88
2023-10-26T04:37:13.439Z,11.83
2023-10-26T04:39:44.677Z,11.83
2023-10-26T04:42:14.059Z,11.75
2023-10-26T04:44:42.215Z,11.80
2023-10-26T04:47:09.892Z,11.81
2023-10-26T04:49:37.193Z,11.71
2023-10-26T04:52:05.002Z,11.68
2023-10-26T04:54:32.275Z,11.70
2023-10-26T04:56:59.607Z,11.67
2023-10-26T04:59:26.947Z,11.67
2023-10-26T05:01:54.170Z,11.63
2023-10-26T05:04:21.383Z,11.81
2023-10-26T05:06:48.726Z,11.80
2023-10-26T05:09:16.083Z,11.74
2023-10-26T05:11:43.411Z,11.64
2023-10-26T05:14:10.720Z,11.56
2023-10-26T05:16:38.305Z,11.54
2023-10-26T05:19:05.655Z,11.54
2023-10-26T05:21:32.958Z,11.63
2023-10-26T05:24:00.426Z,11.65
2023-10-26T05:26:27.736Z,11.67
2023-10-26T05:28:54.998Z,11.74
2023-10-26T05:31:22.316Z,11.76
2023-10-26T05:33:49.609Z,11.87
2023-10-26T05:36:16.890Z,11.78
2023-10-26T05:38:45.982Z,11.71
2023-10-26T05:41:14.583Z,11.65
2023-10-26T05:43:41.917Z,11.58
2023-10-26T05:46:09.143Z,11.51
2023-10-26T05:48:36.387Z,11.49
2023-10-26T05:51:04.245Z,11.45
2023-10-26T05:53:31.573Z,11.52
2023-10-26T05:56:00.047Z,11.53
2023-10-26T05:58:28.128Z,11.56
2023-10-26T06:00:55.422Z,11.60
2023-10-26T06:03:23.007Z,11.65
2023-10-26T06:05:50.307Z,11.65
2023-10-26T06:08:17.899Z,11.48
2023-10-26T06:10:45.162Z,11.46
2023-10-26T06:13:12.533Z,11.47
2023-10-26T06:15:39.861Z,11.46
2023-10-26T06:18:07.227Z,11.52
2023-10-26T06:20:34.706Z,11.42
2023-10-26T06:23:01.984Z,11.56
2023-10-26T06:25:30.111Z,11.65
2023-10-26T06:27:57.790Z,11.74
2023-10-26T06:30:28.161Z,11.79
2023-10-26T06:32:55.719Z,11.89
2023-10-26T06:35:23.119Z,11.92
2023-10-26T06:37:50.480Z,11.91
2023-10-26T06:40:20.590Z,11.91
2023-10-26T06:42:47.795Z,11.88
2023-10-26T06:45:15.068Z,11.76
2023-10-26T06:47:44.166Z,11.86
2023-10-26T06:50:11.573Z,11.80
2023-10-26T06:52:38.937Z,11.86
2023-10-26T06:55:15.708Z,12.02
2023-10-26T06:57:51.517Z,12.02
2023-10-26T07:00:19.608Z,12.02
2023-10-26T07:02:48.646Z,11.99
2023-10-26T07:05:17.148Z,12.09
2023-10-26T07:07:44.443Z,12.25
2023-10-26T07:10:19.881Z,12.16
2023-10-26T07:12:48.041Z,12.02
2023-10-26T07:15:15.468Z,12.25
2023-10-26T07:17:42.760Z,12.37
2023-10-26T07:20:14.033Z,12.33
2023-10-26T07:22:43.705Z,12.31
2023-10-26T07:25:11.145Z,12.44
2023-10-26T07:27:39.417Z,12.42
2023-10-26T07:30:08.204Z,12.42
2023-10-26T07:32:35.566Z,12.39
2023-10-26T07:35:03.448Z,12.55
2023-10-26T07:37:31.145Z,12.59
2023-10-26T07:40:28.425Z,12.55
2023-10-26T07:42:45.700Z,12.51
2023-10-26T07:45:13.593Z,12.64
2023-10-26T07:47:41.096Z,12.71
2023-10-26T07:50:09.509Z,12.70
2023-10-26T07:52:36.738Z,12.66
2023-10-26T07:55:04.532Z,12.75
2023-10-26T07:57:32.468Z,12.72
2023-10-26T07:59:59.794Z,12.77
2023-10-26T08:02:27.177Z,12.70
2023-10-26T08:04:54.789Z,12.84
2023-10-26T08:07:22.129Z,13.00
2023-10-26T08:09:49.703Z,13.08
2023-10-26T08:12:17.668Z,13.18
2023-10-26T08:16:10.056Z,13.37
2023-10-26T08:17:37.211Z,13.37
2023-10-26T08:20:08.434Z,13.29
2023-10-26T08:22:36.316Z,13.18
2023-10-26T08:25:05.440Z,13.22
2023-10-26T08:27:33.100Z,13.30
2023-10-26T08:30:00.567Z,13.31
2023-10-26T08:32:27.906Z,13.34
2023-10-26T08:34:55.206Z,13.36
2023-10-26T08:37:23.228Z,13.40
2023-10-26T08:39:51.931Z,13.40
2023-10-26T08:42:20.459Z,13.44
2023-10-26T08:44:48.191Z,13.55
2023-10-26T08:47:20.569Z,13.34
2023-10-26T08:50:08.042Z,13.43
2023-10-26T08:52:42.442Z,13.72
2023-10-26T08:55:10.333Z,13.80
2023-10-26T08:57:56.011Z,13.77
2023-10-26T09:00:24.442Z,13.67
2023-10-26T09:02:52.231Z,13.58
2023-10-26T09:05:20.042Z,13.60
2023-10-26T09:07:47.531Z,13.67
2023-10-26T09:10:29.814Z,13.77
2023-10-26T09:13:07.166Z,13.94
2023-10-26T09:15:58.621Z,14.05
2023-10-26T09:18:28.714Z,14.17
2023-10-26T09:21:08.874Z,14.25
2023-10-26T09:23:41.352Z,14.38
2023-10-26T09:26:10.910Z,14.51
2023-10-26T09:28:56.253Z,14.69
2023-10-26T09:31:26.798Z,14.83
2023-10-26T09:33:54.323Z,14.81
2023-10-26T09:36:21.946Z,14.82
2023-10-26T09:38:49.375Z,14.76
2023-10-26T09:41:20.340Z,14.62
2023-10-26T09:43:49.247Z,14.45
2023-10-26T09:46:19.420Z,14.45
2023-10-26T09:48:47.690Z,14.62
2023-10-26T09:51:16.472Z,14.71
2023-10-26T09:53:48.306Z,14.79
2023-10-26T09:56:27.038Z,14.84
2023-10-26T09:58:55.011Z,14.84
2023-10-26T10:01:43.689Z,14.78
2023-10-26T10:04:12.357Z,14.78
2023-10-26T10:06:55.204Z,14.78
2023-10-26T10:09:30.072Z,14.71
2023-10-26T10:12:07.219Z,14.42
2023-10-26T10:14:49.754Z,14.34
2023-10-26T10:17:23.160Z,14.25
2023-10-26T10:20:15.285Z,14.37
2023-10-26T10:22:45.225Z,14.61
2023-10-26T10:25:13.458Z,14.71
2023-10-26T10:28:00.774Z,14.53
2023-10-26T10:30:48.318Z,14.70
2023-10-26T10:33:28.662Z,14.57
2023-10-26T10:36:09.121Z,14.66
2023-10-26T10:38:36.738Z,14.68
2023-10-26T10:41:03.909Z,14.27
2023-10-26T10:43:37.511Z,14.27
2023-10-26T10:46:19.860Z,14.25
2023-10-26T10:49:12.494Z,14.35
2023-10-26T10:51:44.054Z,14.46
2023-10-26T10:54:30.759Z,14.47
2023-10-26T10:57:06.620Z,14.40
2023-10-26T10:59:34.004Z,14.50
2023-10-26T11:02:14.707Z,14.59
2023-10-26T11:05:17.775Z,14.67
2023-10-26T11:07:45.734Z,14.71
2023-10-26T11:10:13.133Z,14.73
2023-10-26T11:12:40.556Z,14.79
2023-10-26T11:15:09.459Z,14.75
2023-10-26T11:17:40.390Z,14.81
2023-10-26T11:20:42.532Z,15.01
2023-10-26T11:23:13.149Z,15.06
2023-10-26T11:25:41.267Z,15.01
2023-10-26T11:28:09.943Z,15.00
2023-10-26T11:30:56.314Z,14.98
2023-10-26T11:33:38.697Z,14.87
2023-10-26T11:36:14.504Z,14.99
2023-10-26T11:38:52.354Z,15.10
2023-10-26T11:41:32.035Z,15.11
2023-10-26T11:43:59.682Z,15.09
2023-10-26T11:46:36.833Z,15.15
2023-10-26T11:49:06.870Z,15.18
2023-10-26T11:51:35.984Z,15.15
2023-10-26T11:54:13.374Z,14.97
2023-10-26T11:56:40.748Z,14.97
2023-10-26T11:59:08.004Z,14.99
2023-10-26T12:01:35.376Z,14.89
2023-10-26T12:04:02.799Z,14.86
2023-10-26T12:06:31.630Z,14.84
2023-10-26T12:08:58.885Z,14.88
2023-10-26T12:11:26.523Z,14.90
2023-10-26T12:13:53.760Z,14.79
2023-10-26T12:16:21.117Z,14.85
2023-10-26T12:18:48.353Z,14.68
2023-10-26T12:21:16.632Z,14.79
2023-10-26T12:23:43.804Z,14.83
2023-10-26T12:26:11.276Z,14.72
2023-10-26T12:28:38.464Z,14.73
2023-10-26T12:31:05.921Z,14.73
2023-10-26T12:33:36.890Z,14.89
2023-10-26T12:36:06.620Z,15.11
2023-10-26T12:38:33.930Z,15.23
2023-10-26T12:41:01.216Z,15.07
2023-10-26T12:43:28.457Z,15.00
2023-10-26T12:45:55.854Z,15.27
2023-10-26T12:48:23.228Z,14.86
2023-10-26T12:50:50.458Z,14.95
2023-10-26T12:53:17.863Z,15.09
2023-10-26T12:55:48.178Z,15.19
2023-10-26T12:58:16.078Z,15.00
2023-10-26T13:00:43.604Z,14.97
2023-10-26T13:03:10.962Z,15.29
2023-10-26T13:05:38.409Z,15.43
2023-10-26T13:08:05.814Z,15.49
2023-10-26T13:10:33.205Z,15.46
2023-10-26T13:13:00.511Z,15.32
2023-10-26T13:15:27.913Z,15.46
2023-10-26T13:17:55.197Z,15.66
2023-10-26T13:20:24.043Z,15.58
2023-10-26T13:22:51.358Z,15.47
2023-10-26T13:25:18.584Z,15.38
2023-10-26T13:27:45.921Z,15.19
2023-10-26T13:30:15.157Z,15.05
2023-10-26T13:32:43.379Z,14.98
2023-10-26T13:35:12.216Z,15.16
2023-10-26T13:37:39.763Z,15.26
2023-10-26T13:40:10.204Z,15.17
2023-10-26T13:42:37.577Z,15.21
2023-10-26T13:45:05.980Z,15.07
2023-10-26T13:47:33.444Z,14.96
2023-10-26T13:50:00.713Z,14.96
2023-10-26T13:52:30.869Z,15.02
2023-10-26T13:54:58.293Z,15.13
2023-10-26T13:57:25.652Z,15.13
2023-10-26T13:59:52.896Z,15.11
2023-10-26T14:02:20.958Z,15.08
2023-10-26T14:04:48.222Z,15.11
2023-10-26T14:07:16.587Z,15.09
2023-10-26T14:09:45.066Z,15.10
2023-10-26T14:12:13.973Z,15.10
2023-10-26T14:14:41.299Z,15.06
2023-10-26T14:17:08.571Z,15.01
2023-10-26T14:19:35.825Z,14.93
2023-10-26T14:22:04.935Z,14.97
2023-10-26T14:24:32.534Z,15.04
2023-10-26T14:26:59.994Z,15.05
2023-10-26T14:29:27.421Z,15.03
2023-10-26T14:31:54.642Z,15.02
2023-10-26T14:34:21.915Z,15.10
2023-10-26T14:36:49.168Z,15.15
2023-10-26T14:39:16.443Z,15.17
2023-10-26T14:41:44.194Z,15.13
2023-10-26T14:44:11.439Z,15.05
2023-10-26T14:46:38.728Z,15.06
2023-10-26T14:49:06.112Z,15.03
2023-10-26T14:51:33.562Z,14.94
2023-10-26T14:54:00.869Z,14.99
2023-10-26T14:56:28.099Z,15.04
2023-10-26T14:58:56.529Z,15.08
2023-10-26T15:01:23.943Z,15.00
2023-10-26T15:03:51.247Z,15.00
2023-10-26T15:06:18.447Z,14.99
2023-10-26T15:08:45.701Z,14.88
2023-10-26T15:11:24.267Z,14.83
2023-10-26T15:13:55.162Z,14.85
2023-10-26T15:16:22.820Z,14.92
2023-10-26T15:18:50.254Z,14.91
2023-10-26T15:21:17.556Z,14.84
2023-10-26T15:23:44.774Z,14.77
2023-10-26T15:26:11.981Z,14.75
2023-10-26T15:28:39.435Z,14.76
2023-10-26T15:31:07.393Z,14.75
2023-10-26T15:33:34.691Z,14.74
2023-10-26T15:36:04.583Z,14.72
2023-10-26T15:38:32.337Z,14.69
2023-10-26T15:41:06.856Z,14.66
2023-10-26T15:43:35.541Z,14.64
2023-10-26T15:46:06.028Z,14.64
2023-10-26T15:49:32.912Z,14.69
2023-10-26T15:51:22.919Z,14.65
2023-10-26T15:53:50.282Z,14.64
2023-10-26T15:56:17.570Z,14.58
2023-10-26T15:58:44.859Z,14.52
2023-10-26T16:01:12.257Z,14.48
2023-10-26T16:03:39.640Z,14.46
2023-10-26T16:06:10.304Z,14.45
2023-10-26T16:08:39.185Z,14.45
2023-10-26T16:11:12.134Z,14.44
2023-10-26T16:13:40.039Z,14.30
2023-10-26T16:16:07.546Z,14.28
2023-10-26T16:18:34.871Z,14.32
2023-10-26T16:21:02.763Z,14.28
2023-10-26T16:23:30.322Z,14.12
2023-10-26T16:25:59.212Z,14.08
2023-10-26T16:28:26.692Z,14.20
2023-10-26T16:31:00.871Z,14.25
2023-10-26T16:33:28.789Z,14.28
2023-10-26T16:35:58.197Z,14.26
2023-10-26T16:38:26.648Z,14.27
2023-10-26T16:40:53.953Z,14.25
2023-10-26T16:43:21.625Z,14.24
2023-10-26T16:45:49.007Z,14.21
2023-10-26T16:48:17.456Z,14.22
2023-10-26T16:50:45.142Z,14.22
2023-10-26T16:53:27.232Z,14.20
2023-10-26T16:56:03.201Z,14.22
2023-10-26T16:58:35.156Z,14.13
2023-10-26T17:01:09.210Z,14.15
2023-10-26T17:03:37.490Z,14.18
2023-10-26T17:06:05.638Z,14.20
2023-10-26T17:08:33.212Z,14.19
2023-10-26T17:11:00.530Z,14.18
2023-10-26T17:13:27.813Z,14.17
2023-10-26T17:15:55.304Z,14.03
2023-10-26T17:18:23.163Z,13.76
2023-10-26T17:20:50.721Z,13.76
2023-10-26T17:23:18.011Z,13.82
2023-10-26T17:25:45.374Z,13.88
2023-10-26T17:28:12.674Z,13.89
2023-10-26T17:30:40.730Z,13.86
2023-10-26T17:33:11.667Z,13.89
2023-10-26T17:35:48.577Z,13.90
2023-10-26T17:38:16.172Z,13.91
2023-10-26T17:40:46.290Z,13.90
2023-10-26T17:43:14.970Z,13.83
2023-10-26T17:45:42.660Z,13.86
2023-10-26T17:48:10.803Z,13.85
2023-10-26T17:50:41.864Z,13.86
2023-10-26T17:53:09.610Z,13.87
2023-10-26T17:55:37.390Z,13.87
2023-10-26T17:58:04.616Z,13.87
2023-10-26T18:00:31.873Z,13.84
2023-10-26T18:02:59.285Z,13.82
2023-10-26T18:05:26.568Z,13.83
2023-10-26T18:07:55.105Z,13.80
2023-10-26T18:10:22.914Z,13.81
2023-10-26T18:12:50.545Z,13.82
2023-10-26T18:15:17.844Z,13.80
2023-10-26T18:17:45.150Z,13.80
2023-10-26T18:20:12.770Z,13.79
2023-10-26T18:22:40.489Z,13.80
2023-10-26T18:25:10.487Z,13.79
2023-10-26T18:27:37.945Z,13.77
2023-10-26T18:30:06.935Z,13.78
2023-10-26T18:32:34.356Z,13.77
2023-10-26T18:35:04.359Z,13.78
2023-10-26T18:37:31.572Z,13.69
2023-10-26T18:39:59.761Z,13.78
2023-10-26T18:42:27.168Z,13.77
2023-10-26T18:44:54.596Z,13.77
2023-10-26T18:47:21.780Z,13.77
2023-10-26T18:49:50.919Z,13.78
2023-10-26T18:52:18.382Z,13.78
2023-10-26T18:54:45.657Z,13.78
2023-10-26T18:57:12.897Z,13.79
2023-10-26T18:59:40.159Z,13.75
2023-10-26T19:02:07.562Z,13.75
2023-10-26T19:04:35.072Z,13.76
2023-10-26T19:07:03.920Z,13.69
2023-10-26T19:09:32.424Z,13.68
2023-10-26T19:11:59.671Z,13.69
2023-10-26T19:14:26.916Z,13.68
2023-10-26T19:16:54.302Z,13.68
2023-10-26T19:19:21.563Z,13.67
2023-10-26T19:21:48.872Z,13.71
2023-10-26T19:24:17.092Z,13.69
2023-10-26T19:26:44.461Z,13.69
2023-10-26T19:29:12.046Z,13.69
2023-10-26T19:31:39.430Z,13.67
2023-10-26T19:34:06.711Z,13.66
2023-10-26T19:36:34.035Z,13.67
2023-10-26T19:39:01.582Z,13.66
2023-10-26T19:41:28.885Z,13.66
2023-10-26T19:43:56.165Z,13.63
2023-10-26T19:46:23.617Z,13.63
2023-10-26T19:48:51.007Z,13.66
2023-10-26T19:51:18.494Z,13.64
2023-10-26T19:53:48.549Z,13.64
2023-10-26T19:56:15.912Z,13.65
2023-10-26T19:58:43.180Z,13.63
2023-10-26T20:01:16.724Z,13.64
2023-10-26T20:03:44.291Z,13.64
2023-10-26T20:06:11.650Z,13.65
2023-10-26T20:08:38.881Z,13.64
2023-10-26T20:11:06.220Z,13.64
2023-10-26T20:13:33.497Z,13.64
2023-10-26T20:16:00.755Z,13.64
2023-10-26T20:18:29.592Z,13.62
2023-10-26T20:20:57.488Z,13.60
2023-10-26T20:23:24.695Z,13.59
2023-10-26T20:25:51.953Z,13.60
2023-10-26T20:28:20.132Z,13.62
2023-10-26T20:30:47.689Z,13.60
2023-10-26T20:33:15.161Z,13.60
2023-10-26T20:35:42.510Z,13.57
2023-10-26T20:38:09.742Z,13.59
2023-10-26T20:40:43.487Z,13.58
2023-10-26T20:43:10.774Z,13.53
2023-10-26T20:45:38.178Z,13.46
2023-10-26T20:48:05.868Z,13.37
2023-10-26T20:50:33.814Z,13.37
2023-10-26T20:53:01.930Z,13.36
2023-10-26T20:55:29.149Z,13.35
2023-10-26T20:57:56.436Z,13.34
2023-10-26T21:00:23.743Z,13.33
2023-10-26T21:02:51.110Z,13.33
2023-10-26T21:05:18.531Z,13.32
2023-10-26T21:07:46.887Z,13.35
2023-10-26T21:10:14.308Z,13.35
2023-10-26T21:12:41.707Z,13.34
2023-10-26T21:15:09.898Z,13.35
2023-10-26T21:17:37.705Z,13.35
2023-10-26T21:20:09.088Z,13.35
2023-10-26T21:22:36.875Z,13.36
2023-10-26T21:25:05.850Z,13.36
2023-10-26T21:27:33.112Z,13.34
2023-10-26T21:30:00.386Z,13.36
2023-10-26T21:32:27.787Z,13.34
2023-10-26T21:34:55.181Z,13.33
2023-10-26T21:37:22.529Z,13.34
2023-10-26T21:39:49.823Z,13.33
2023-10-26T21:42:17.568Z,13.33
2023-10-26T21:44:44.976Z,13.33
2023-10-26T21:47:12.282Z,13.29
2023-10-26T21:49:39.631Z,13.29
2023-10-26T21:52:07.068Z,13.28
2023-10-26T21:54:34.319Z,13.32
2023-10-26T21:57:01.698Z,13.34
2023-10-26T21:59:29.366Z,13.35
2023-10-26T22:01:56.727Z,13.33
2023-10-26T22:04:24.556Z,13.34
2023-10-26T22:06:52.131Z,13.35
2023-10-26T22:09:22.100Z,13.35
2023-10-26T22:11:49.508Z,13.35
2023-10-26T22:14:16.788Z,13.35
2023-10-26T22:16:44.273Z,13.34
2023-10-26T22:19:11.696Z,13.34
2023-10-26T22:21:39.034Z,13.36
2023-10-26T22:24:07.844Z,13.36
2023-10-26T22:26:35.257Z,13.38
2023-10-26T22:29:04.444Z,13.36
2023-10-26T22:31:32.735Z,13.35
2023-10-26T22:34:00.907Z,13.32
2023-10-26T22:36:29.094Z,13.32
2023-10-26T22:38:59.252Z,13.34
2023-10-26T22:41:26.519Z,13.32
2023-10-26T22:43:55.035Z,13.33
2023-10-26T22:46:22.358Z,13.30
2023-10-26T22:48:50.323Z,13.30
2023-10-26T22:51:17.591Z,13.30
2023-10-26T22:53:45.700Z,13.31
2023-10-26T22:56:20.715Z,13.31
2023-10-26T22:58:49.289Z,13.29
2023-10-26T23:01:16.480Z,13.29
2023-10-26T23:03:43.695Z,13.28
2023-10-26T23:06:10.902Z,13.30
2023-10-26T23:08:38.127Z,13.31
2023-10-26T23:11:05.355Z,13.30
2023-10-26T23:13:32.723Z,13.33
2023-10-26T23:16:00.125Z,13.33
2023-10-26T23:18:27.505Z,13.34
2023-10-26T23:20:54.834Z,13.33
2023-10-26T23:23:21.998Z,13.31
2023-10-26T23:25:49.437Z,13.29
2023-10-26T23:28:16.808Z,13.29
2023-10-26T23:30:44.047Z,13.26
2023-10-26T23:33:11.763Z,13.26
2023-10-26T23:35:42.215Z,13.27
2023-10-26T23:38:09.662Z,13.29
2023-10-26T23:40:37.005Z,13.27
2023-10-26T23:43:04.401Z,13.29
2023-10-26T23:45:31.663Z,13.30
2023-10-26T23:47:59.607Z,13.29
2023-10-26T23:50:26.975Z,13.27
2023-10-26T23:52:54.170Z,13.28
2023-10-26T23:55:21.549Z,13.29
2023-10-26T23:57:49.029Z,13.29
